sensor_id;sensor_type;location;lat;lon;timestamp;temperature;humidity
67820;DHT22;54618;52.018;5.576;2023-04-01T00:02:06;18.60;53.70
67820;DHT22;54618;52.018;5.576;2023-04-01T00:04:32;18.60;53.70
67820;DHT22;54618;52.018;5.576;2023-04-01T00:06:58;18.60;53.70
67820;DHT22;54618;52.018;5.576;2023-04-01T00:09:23;18.60;53.80
67820;DHT22;54618;52.018;5.576;2023-04-01T00:11:49;18.60;53.70
67820;DHT22;54618;52.018;5.576;2023-04-01T00:14:14;18.60;53.70
67820;DHT22;54618;52.018;5.576;2023-04-01T00:16:40;18.60;53.80
67820;DHT22;54618;52.018;5.576;2023-04-01T00:19:06;18.60;53.80
67820;DHT22;54618;52.018;5.576;2023-04-01T00:21:32;18.60;53.80
67820;DHT22;54618;52.018;5.576;2023-04-01T00:23:57;18.60;53.80
67820;DHT22;54618;52.018;5.576;2023-04-01T00:26:24;18.60;53.80
67820;DHT22;54618;52.018;5.576;2023-04-01T00:28:50;18.60;53.80
67820;DHT22;54618;52.018;5.576;2023-04-01T00:31:16;18.50;53.70
67820;DHT22;54618;52.018;5.576;2023-04-01T00:33:42;18.50;53.70
67820;DHT22;54618;52.018;5.576;2023-04-01T00:36:14;18.50;53.70
67820;DHT22;54618;52.018;5.576;2023-04-01T00:38:41;18.50;53.80
67820;DHT22;54618;52.018;5.576;2023-04-01T00:41:08;18.50;53.80
67820;DHT22;54618;52.018;5.576;2023-04-01T00:43:36;18.50;53.70
67820;DHT22;54618;52.018;5.576;2023-04-01T00:46:01;18.50;53.80
67820;DHT22;54618;52.018;5.576;2023-04-01T00:48:29;18.50;53.80
67820;DHT22;54618;52.018;5.576;2023-04-01T00:51:18;18.50;53.80
67820;DHT22;54618;52.018;5.576;2023-04-01T00:53:47;18.50;54.10
67820;DHT22;54618;52.018;5.576;2023-04-01T00:56:17;18.50;53.80
67820;DHT22;54618;52.018;5.576;2023-04-01T00:58:47;18.50;53.80
67820;DHT22;54618;52.018;5.576;2023-04-01T01:01:14;18.50;53.90
67820;DHT22;54618;52.018;5.576;2023-04-01T01:03:39;18.40;53.80
67820;DHT22;54618;52.018;5.576;2023-04-01T01:11:40;18.40;53.90
67820;DHT22;54618;52.018;5.576;2023-04-01T01:16:59;18.40;54.10
67820;DHT22;54618;52.018;5.576;2023-04-01T01:25:13;18.40;53.80
67820;DHT22;54618;52.018;5.576;2023-04-01T01:27:54;18.40;54.10
67820;DHT22;54618;52.018;5.576;2023-04-01T01:30:37;18.40;53.90
67820;DHT22;54618;52.018;5.576;2023-04-01T01:33:17;18.40;54.00
67820;DHT22;54618;52.018;5.576;2023-04-01T01:35:57;18.40;53.90
67820;DHT22;54618;52.018;5.576;2023-04-01T01:38:27;18.30;53.70
67820;DHT22;54618;52.018;5.576;2023-04-01T01:40:56;18.40;53.90
67820;DHT22;54618;52.018;5.576;2023-04-01T01:43:30;18.30;53.80
67820;DHT22;54618;52.018;5.576;2023-04-01T01:46:00;18.30;53.80
67820;DHT22;54618;52.018;5.576;2023-04-01T01:48:27;18.30;53.80
67820;DHT22;54618;52.018;5.576;2023-04-01T01:50:55;18.30;53.80
67820;DHT22;54618;52.018;5.576;2023-04-01T01:53:20;18.30;53.80
67820;DHT22;54618;52.018;5.576;2023-04-01T01:55:47;18.30;53.80
67820;DHT22;54618;52.018;5.576;2023-04-01T01:58:30;18.30;53.80
67820;DHT22;54618;52.018;5.576;2023-04-01T02:01:03;18.30;54.10
67820;DHT22;54618;52.018;5.576;2023-04-01T02:03:34;18.30;53.90
67820;DHT22;54618;52.018;5.576;2023-04-01T02:06:02;18.30;53.90
67820;DHT22;54618;52.018;5.576;2023-04-01T02:08:45;18.30;53.80
67820;DHT22;54618;52.018;5.576;2023-04-01T02:11:16;18.30;53.90
67820;DHT22;54618;52.018;5.576;2023-04-01T02:16:45;18.20;53.80
67820;DHT22;54618;52.018;5.576;2023-04-01T02:19:14;18.20;53.80
67820;DHT22;54618;52.018;5.576;2023-04-01T02:21:49;18.20;53.80
67820;DHT22;54618;52.018;5.576;2023-04-01T02:24:17;18.20;53.90
67820;DHT22;54618;52.018;5.576;2023-04-01T02:26:46;18.20;53.80
67820;DHT22;54618;52.018;5.576;2023-04-01T02:29:12;18.20;53.80
67820;DHT22;54618;52.018;5.576;2023-04-01T02:31:38;18.20;53.80
67820;DHT22;54618;52.018;5.576;2023-04-01T02:34:04;18.20;53.80
67820;DHT22;54618;52.018;5.576;2023-04-01T02:36:30;18.20;53.90
67820;DHT22;54618;52.018;5.576;2023-04-01T02:38:56;18.20;53.90
67820;DHT22;54618;52.018;5.576;2023-04-01T02:41:27;18.20;53.90
67820;DHT22;54618;52.018;5.576;2023-04-01T02:43:53;18.20;53.90
67820;DHT22;54618;52.018;5.576;2023-04-01T02:46:18;18.20;53.90
67820;DHT22;54618;52.018;5.576;2023-04-01T02:48:44;18.20;53.90
67820;DHT22;54618;52.018;5.576;2023-04-01T02:51:09;18.10;53.80
67820;DHT22;54618;52.018;5.576;2023-04-01T02:53:35;18.10;53.80
67820;DHT22;54618;52.018;5.576;2023-04-01T02:56:00;18.10;53.90
67820;DHT22;54618;52.018;5.576;2023-04-01T02:58:26;18.10;53.80
67820;DHT22;54618;52.018;5.576;2023-04-01T03:00:51;18.10;53.80
67820;DHT22;54618;52.018;5.576;2023-04-01T03:03:17;18.10;53.80
67820;DHT22;54618;52.018;5.576;2023-04-01T03:05:42;18.10;53.90
67820;DHT22;54618;52.018;5.576;2023-04-01T03:08:08;18.10;53.80
67820;DHT22;54618;52.018;5.576;2023-04-01T03:10:34;18.10;53.80
67820;DHT22;54618;52.018;5.576;2023-04-01T03:12:59;18.10;53.90
67820;DHT22;54618;52.018;5.576;2023-04-01T03:15:25;18.10;53.90
67820;DHT22;54618;52.018;5.576;2023-04-01T03:17:50;18.10;53.90
67820;DHT22;54618;52.018;5.576;2023-04-01T03:20:16;18.10;53.90
67820;DHT22;54618;52.018;5.576;2023-04-01T03:22:42;18.10;53.90
67820;DHT22;54618;52.018;5.576;2023-04-01T03:25:08;18.10;53.90
67820;DHT22;54618;52.018;5.576;2023-04-01T03:27:34;18.10;53.90
67820;DHT22;54618;52.018;5.576;2023-04-01T03:30:04;18.10;53.90
67820;DHT22;54618;52.018;5.576;2023-04-01T03:32:30;18.00;53.90
67820;DHT22;54618;52.018;5.576;2023-04-01T03:34:56;18.10;53.90
67820;DHT22;54618;52.018;5.576;2023-04-01T03:37:22;18.00;53.90
67820;DHT22;54618;52.018;5.576;2023-04-01T03:39:48;18.00;53.90
67820;DHT22;54618;52.018;5.576;2023-04-01T03:42:13;18.00;53.90
67820;DHT22;54618;52.018;5.576;2023-04-01T03:44:39;18.00;53.90
67820;DHT22;54618;52.018;5.576;2023-04-01T03:47:05;18.00;53.80
67820;DHT22;54618;52.018;5.576;2023-04-01T03:49:30;18.00;53.80
67820;DHT22;54618;52.018;5.576;2023-04-01T03:51:57;18.10;53.80
67820;DHT22;54618;52.018;5.576;2023-04-01T03:54:23;18.10;53.70
67820;DHT22;54618;52.018;5.576;2023-04-01T03:56:48;18.10;53.70
67820;DHT22;54618;52.018;5.576;2023-04-01T03:59:15;18.10;53.90
67820;DHT22;54618;52.018;5.576;2023-04-01T04:01:40;18.10;53.90
67820;DHT22;54618;52.018;5.576;2023-04-01T04:04:06;18.10;53.90
67820;DHT22;54618;52.018;5.576;2023-04-01T04:06:32;18.10;53.90
67820;DHT22;54618;52.018;5.576;2023-04-01T04:08:58;18.20;54.40
67820;DHT22;54618;52.018;5.576;2023-04-01T04:11:24;18.30;53.70
67820;DHT22;54618;52.018;5.576;2023-04-01T04:13:49;18.30;53.60
67820;DHT22;54618;52.018;5.576;2023-04-01T04:16:16;18.40;53.50
67820;DHT22;54618;52.018;5.576;2023-04-01T04:18:42;18.40;53.50
67820;DHT22;54618;52.018;5.576;2023-04-01T04:21:14;18.40;53.40
67820;DHT22;54618;52.018;5.576;2023-04-01T04:23:40;18.50;53.40
67820;DHT22;54618;52.018;5.576;2023-04-01T04:26:08;18.50;53.40
67820;DHT22;54618;52.018;5.576;2023-04-01T04:28:34;18.50;53.40
67820;DHT22;54618;52.018;5.576;2023-04-01T04:31:00;18.50;53.40
67820;DHT22;54618;52.018;5.576;2023-04-01T04:33:26;18.50;53.50
67820;DHT22;54618;52.018;5.576;2023-04-01T04:35:55;18.60;53.20
67820;DHT22;54618;52.018;5.576;2023-04-01T04:38:21;18.60;53.10
67820;DHT22;54618;52.018;5.576;2023-04-01T04:40:46;18.60;53.10
67820;DHT22;54618;52.018;5.576;2023-04-01T04:43:13;18.70;53.10
67820;DHT22;54618;52.018;5.576;2023-04-01T04:45:40;18.70;53.10
67820;DHT22;54618;52.018;5.576;2023-04-01T04:48:08;18.60;53.10
67820;DHT22;54618;52.018;5.576;2023-04-01T04:50:34;18.70;53.10
67820;DHT22;54618;52.018;5.576;2023-04-01T04:53:00;18.80;53.00
67820;DHT22;54618;52.018;5.576;2023-04-01T04:55:26;18.80;52.90
67820;DHT22;54618;52.018;5.576;2023-04-01T04:57:51;18.80;52.90
67820;DHT22;54618;52.018;5.576;2023-04-01T05:00:17;18.80;52.80
67820;DHT22;54618;52.018;5.576;2023-04-01T05:02:43;18.90;52.70
67820;DHT22;54618;52.018;5.576;2023-04-01T05:05:08;18.90;52.70
67820;DHT22;54618;52.018;5.576;2023-04-01T05:07:34;18.80;52.70
67820;DHT22;54618;52.018;5.576;2023-04-01T05:09:59;18.80;52.80
67820;DHT22;54618;52.018;5.576;2023-04-01T05:12:25;18.90;52.80
67820;DHT22;54618;52.018;5.576;2023-04-01T05:14:51;18.90;52.70
67820;DHT22;54618;52.018;5.576;2023-04-01T05:17:16;18.90;52.60
67820;DHT22;54618;52.018;5.576;2023-04-01T05:19:42;18.90;52.60
67820;DHT22;54618;52.018;5.576;2023-04-01T05:22:07;18.80;52.70
67820;DHT22;54618;52.018;5.576;2023-04-01T05:24:33;18.90;52.70
67820;DHT22;54618;52.018;5.576;2023-04-01T05:26:59;18.90;52.60
67820;DHT22;54618;52.018;5.576;2023-04-01T05:29:25;18.90;52.60
67820;DHT22;54618;52.018;5.576;2023-04-01T05:31:51;18.90;52.60
67820;DHT22;54618;52.018;5.576;2023-04-01T05:34:17;18.90;52.60
67820;DHT22;54618;52.018;5.576;2023-04-01T05:36:43;19.00;52.60
67820;DHT22;54618;52.018;5.576;2023-04-01T05:39:08;19.30;52.30
67820;DHT22;54618;52.018;5.576;2023-04-01T05:41:37;19.70;51.70
67820;DHT22;54618;52.018;5.576;2023-04-01T05:44:04;20.10;51.10
67820;DHT22;54618;52.018;5.576;2023-04-01T05:46:29;20.50;50.50
67820;DHT22;54618;52.018;5.576;2023-04-01T05:48:55;20.80;50.20
67820;DHT22;54618;52.018;5.576;2023-04-01T05:51:21;20.90;50.10
67820;DHT22;54618;52.018;5.576;2023-04-01T05:53:47;21.10;50.00
67820;DHT22;54618;52.018;5.576;2023-04-01T05:56:12;21.10;49.90
67820;DHT22;54618;52.018;5.576;2023-04-01T05:58:38;21.20;49.90
67820;DHT22;54618;52.018;5.576;2023-04-01T06:01:06;21.30;49.90
67820;DHT22;54618;52.018;5.576;2023-04-01T06:03:33;21.40;50.00
67820;DHT22;54618;52.018;5.576;2023-04-01T06:05:58;21.40;50.00
67820;DHT22;54618;52.018;5.576;2023-04-01T06:08:26;21.40;50.00
67820;DHT22;54618;52.018;5.576;2023-04-01T06:11:08;21.50;50.00
67820;DHT22;54618;52.018;5.576;2023-04-01T06:19:09;21.60;50.10
67820;DHT22;54618;52.018;5.576;2023-04-01T06:21:55;21.50;49.90
67820;DHT22;54618;52.018;5.576;2023-04-01T06:24:35;21.60;50.00
67820;DHT22;54618;52.018;5.576;2023-04-01T06:30:04;21.60;50.00
67820;DHT22;54618;52.018;5.576;2023-04-01T06:33:09;21.60;49.60
67820;DHT22;54618;52.018;5.576;2023-04-01T06:44:33;21.70;49.70
67820;DHT22;54618;52.018;5.576;2023-04-01T06:55:34;21.80;49.60
67820;DHT22;54618;52.018;5.576;2023-04-01T06:58:05;21.80;49.60
67820;DHT22;54618;52.018;5.576;2023-04-01T07:00:34;21.80;49.60
67820;DHT22;54618;52.018;5.576;2023-04-01T07:05:32;21.80;49.50
67820;DHT22;54618;52.018;5.576;2023-04-01T07:08:02;21.80;49.60
67820;DHT22;54618;52.018;5.576;2023-04-01T07:10:52;21.80;49.70
67820;DHT22;54618;52.018;5.576;2023-04-01T07:13:29;21.60;49.60
67820;DHT22;54618;52.018;5.576;2023-04-01T07:19:06;21.40;50.00
67820;DHT22;54618;52.018;5.576;2023-04-01T07:21:43;21.30;50.00
67820;DHT22;54618;52.018;5.576;2023-04-01T07:24:16;21.20;50.30
67820;DHT22;54618;52.018;5.576;2023-04-01T07:26:43;21.20;50.30
67820;DHT22;54618;52.018;5.576;2023-04-01T07:29:11;21.10;50.30
67820;DHT22;54618;52.018;5.576;2023-04-01T07:34:43;21.20;50.20
67820;DHT22;54618;52.018;5.576;2023-04-01T07:37:22;21.30;50.00
67820;DHT22;54618;52.018;5.576;2023-04-01T07:43:22;21.40;49.80
67820;DHT22;54618;52.018;5.576;2023-04-01T07:51:31;21.20;50.30
67820;DHT22;54618;52.018;5.576;2023-04-01T07:59:05;20.80;50.90
67820;DHT22;54618;52.018;5.576;2023-04-01T08:01:53;20.80;51.10
67820;DHT22;54618;52.018;5.576;2023-04-01T08:09:48;20.60;51.10
67820;DHT22;54618;52.018;5.576;2023-04-01T08:22:58;20.90;50.80
67820;DHT22;54618;52.018;5.576;2023-04-01T08:25:28;21.10;50.60
67820;DHT22;54618;52.018;5.576;2023-04-01T08:28:03;21.10;50.50
67820;DHT22;54618;52.018;5.576;2023-04-01T08:35:30;21.30;50.40
67820;DHT22;54618;52.018;5.576;2023-04-01T08:38:00;21.50;50.30
67820;DHT22;54618;52.018;5.576;2023-04-01T08:40:37;21.70;50.20
67820;DHT22;54618;52.018;5.576;2023-04-01T08:51:56;22.20;49.60
67820;DHT22;54618;52.018;5.576;2023-04-01T08:57:04;22.30;50.10
67820;DHT22;54618;52.018;5.576;2023-04-01T09:07:41;22.50;49.30
67820;DHT22;54618;52.018;5.576;2023-04-01T09:28:44;21.90;49.90
67820;DHT22;54618;52.018;5.576;2023-04-01T09:37:19;21.70;50.30
67820;DHT22;54618;52.018;5.576;2023-04-01T09:40:08;21.70;50.40
67820;DHT22;54618;52.018;5.576;2023-04-01T09:45:41;21.60;50.40
67820;DHT22;54618;52.018;5.576;2023-04-01T09:51:26;21.80;50.20
67820;DHT22;54618;52.018;5.576;2023-04-01T09:54:07;22.00;50.00
67820;DHT22;54618;52.018;5.576;2023-04-01T09:56:46;22.10;49.70
67820;DHT22;54618;52.018;5.576;2023-04-01T10:16:22;22.60;49.20
67820;DHT22;54618;52.018;5.576;2023-04-01T10:22:21;22.70;49.10
67820;DHT22;54618;52.018;5.576;2023-04-01T10:25:15;22.80;49.10
67820;DHT22;54618;52.018;5.576;2023-04-01T10:31:11;22.80;49.00
67820;DHT22;54618;52.018;5.576;2023-04-01T10:36:54;22.90;49.00
67820;DHT22;54618;52.018;5.576;2023-04-01T10:39:54;22.80;49.00
67820;DHT22;54618;52.018;5.576;2023-04-01T10:51:18;22.80;49.00
67820;DHT22;54618;52.018;5.576;2023-04-01T11:00:16;22.80;49.10
67820;DHT22;54618;52.018;5.576;2023-04-01T11:11:33;22.60;49.70
67820;DHT22;54618;52.018;5.576;2023-04-01T11:14:34;22.60;49.90
67820;DHT22;54618;52.018;5.576;2023-04-01T11:17:52;22.50;50.00
67820;DHT22;54618;52.018;5.576;2023-04-01T11:34:26;22.10;50.50
67820;DHT22;54618;52.018;5.576;2023-04-01T11:37:05;22.00;50.50
67820;DHT22;54618;52.018;5.576;2023-04-01T11:51:01;21.90;50.70
67820;DHT22;54618;52.018;5.576;2023-04-01T11:53:44;21.90;50.70
67820;DHT22;54618;52.018;5.576;2023-04-01T11:59:38;21.80;50.60
67820;DHT22;54618;52.018;5.576;2023-04-01T12:10:27;21.90;50.50
67820;DHT22;54618;52.018;5.576;2023-04-01T12:13:07;21.90;50.50
67820;DHT22;54618;52.018;5.576;2023-04-01T12:27:22;21.90;50.30
67820;DHT22;54618;52.018;5.576;2023-04-01T12:36:23;21.90;50.30
67820;DHT22;54618;52.018;5.576;2023-04-01T12:39:21;21.90;50.30
67820;DHT22;54618;52.018;5.576;2023-04-01T12:47:16;21.90;50.20
67820;DHT22;54618;52.018;5.576;2023-04-01T12:52:53;21.80;50.30
67820;DHT22;54618;52.018;5.576;2023-04-01T12:55:41;21.80;50.40
67820;DHT22;54618;52.018;5.576;2023-04-01T13:04:01;21.60;50.50
67820;DHT22;54618;52.018;5.576;2023-04-01T13:06:54;21.60;50.50
67820;DHT22;54618;52.018;5.576;2023-04-01T13:09:25;21.60;50.50
67820;DHT22;54618;52.018;5.576;2023-04-01T13:12:15;21.60;50.50
67820;DHT22;54618;52.018;5.576;2023-04-01T13:15:21;21.60;50.60
67820;DHT22;54618;52.018;5.576;2023-04-01T13:27:23;21.40;50.50
67820;DHT22;54618;52.018;5.576;2023-04-01T13:36:08;21.40;50.60
67820;DHT22;54618;52.018;5.576;2023-04-01T13:42:04;21.40;50.70
67820;DHT22;54618;52.018;5.576;2023-04-01T13:44:48;21.30;50.70
67820;DHT22;54618;52.018;5.576;2023-04-01T13:50:16;21.30;50.80
67820;DHT22;54618;52.018;5.576;2023-04-01T13:58:20;21.40;51.00
67820;DHT22;54618;52.018;5.576;2023-04-01T14:06:49;21.40;51.10
67820;DHT22;54618;52.018;5.576;2023-04-01T14:09:37;21.40;51.10
67820;DHT22;54618;52.018;5.576;2023-04-01T14:12:28;21.40;51.10
67820;DHT22;54618;52.018;5.576;2023-04-01T14:23:08;21.30;51.80
67820;DHT22;54618;52.018;5.576;2023-04-01T14:28:52;21.30;51.30
67820;DHT22;54618;52.018;5.576;2023-04-01T14:31:23;21.30;51.30
67820;DHT22;54618;52.018;5.576;2023-04-01T14:34:12;21.40;51.40
67820;DHT22;54618;52.018;5.576;2023-04-01T14:45:20;21.50;51.30
67820;DHT22;54618;52.018;5.576;2023-04-01T14:48:01;21.50;51.20
67820;DHT22;54618;52.018;5.576;2023-04-01T14:50:41;21.70;51.10
67820;DHT22;54618;52.018;5.576;2023-04-01T14:53:26;21.80;50.90
67820;DHT22;54618;52.018;5.576;2023-04-01T14:55:58;21.90;50.70
67820;DHT22;54618;52.018;5.576;2023-04-01T15:06:56;22.30;50.30
67820;DHT22;54618;52.018;5.576;2023-04-01T15:15:36;22.40;50.20
67820;DHT22;54618;52.018;5.576;2023-04-01T15:18:09;22.50;50.20
67820;DHT22;54618;52.018;5.576;2023-04-01T15:31:27;22.60;50.10
67820;DHT22;54618;52.018;5.576;2023-04-01T15:40:03;22.60;50.00
67820;DHT22;54618;52.018;5.576;2023-04-01T15:42:53;22.60;49.90
67820;DHT22;54618;52.018;5.576;2023-04-01T15:45:58;22.60;49.90
67820;DHT22;54618;52.018;5.576;2023-04-01T15:59:44;22.70;50.30
67820;DHT22;54618;52.018;5.576;2023-04-01T16:02:32;22.70;49.90
67820;DHT22;54618;52.018;5.576;2023-04-01T16:05:24;22.60;49.50
67820;DHT22;54618;52.018;5.576;2023-04-01T16:11:04;22.20;50.10
67820;DHT22;54618;52.018;5.576;2023-04-01T16:13:55;21.90;50.10
67820;DHT22;54618;52.018;5.576;2023-04-01T16:16:38;21.70;50.30
67820;DHT22;54618;52.018;5.576;2023-04-01T16:30:33;21.00;51.50
67820;DHT22;54618;52.018;5.576;2023-04-01T16:33:22;21.00;51.60
67820;DHT22;54618;52.018;5.576;2023-04-01T16:38:53;20.80;51.70
67820;DHT22;54618;52.018;5.576;2023-04-01T16:41:26;20.80;52.10
67820;DHT22;54618;52.018;5.576;2023-04-01T16:44:13;20.90;52.50
67820;DHT22;54618;52.018;5.576;2023-04-01T16:47:08;21.50;52.70
67820;DHT22;54618;52.018;5.576;2023-04-01T16:54:58;23.00;52.60
67820;DHT22;54618;52.018;5.576;2023-04-01T16:57:30;23.80;52.50
67820;DHT22;54618;52.018;5.576;2023-04-01T17:00:26;24.40;47.60
67820;DHT22;54618;52.018;5.576;2023-04-01T17:08:22;26.30;49.60
67820;DHT22;54618;52.018;5.576;2023-04-01T17:16:54;27.20;48.30
67820;DHT22;54618;52.018;5.576;2023-04-01T17:22:40;27.20;44.70
67820;DHT22;54618;52.018;5.576;2023-04-01T17:25:46;27.10;44.60
67820;DHT22;54618;52.018;5.576;2023-04-01T17:28:24;26.90;45.30
67820;DHT22;54618;52.018;5.576;2023-04-01T17:31:07;26.60;47.60
67820;DHT22;54618;52.018;5.576;2023-04-01T17:37:05;26.10;45.50
67820;DHT22;54618;52.018;5.576;2023-04-01T17:42:46;25.60;47.30
67820;DHT22;54618;52.018;5.576;2023-04-01T17:50:51;24.90;48.80
67820;DHT22;54618;52.018;5.576;2023-04-01T18:04:42;23.90;48.90
67820;DHT22;54618;52.018;5.576;2023-04-01T18:07:43;23.70;48.90
67820;DHT22;54618;52.018;5.576;2023-04-01T18:10:28;23.60;48.80
67820;DHT22;54618;52.018;5.576;2023-04-01T18:13:25;23.40;49.60
67820;DHT22;54618;52.018;5.576;2023-04-01T18:16:37;23.70;49.30
67820;DHT22;54618;52.018;5.576;2023-04-01T18:19:19;23.90;48.80
67820;DHT22;54618;52.018;5.576;2023-04-01T18:21:52;24.00;49.30
67820;DHT22;54618;52.018;5.576;2023-04-01T18:24:54;23.90;49.60
67820;DHT22;54618;52.018;5.576;2023-04-01T18:32:51;23.80;49.20
67820;DHT22;54618;52.018;5.576;2023-04-01T18:46:38;23.10;49.10
67820;DHT22;54618;52.018;5.576;2023-04-01T18:51:51;22.70;49.40
67820;DHT22;54618;52.018;5.576;2023-04-01T18:54:29;22.60;49.40
67820;DHT22;54618;52.018;5.576;2023-04-01T18:59:55;22.30;49.60
67820;DHT22;54618;52.018;5.576;2023-04-01T19:02:36;22.20;49.70
67820;DHT22;54618;52.018;5.576;2023-04-01T19:05:12;22.10;49.80
67820;DHT22;54618;52.018;5.576;2023-04-01T19:13:07;21.80;50.00
67820;DHT22;54618;52.018;5.576;2023-04-01T19:29:43;21.20;50.40
67820;DHT22;54618;52.018;5.576;2023-04-01T19:35:24;21.00;50.20
67820;DHT22;54618;52.018;5.576;2023-04-01T19:40:30;20.90;50.40
67820;DHT22;54618;52.018;5.576;2023-04-01T19:45:41;20.80;50.60
67820;DHT22;54618;52.018;5.576;2023-04-01T19:50:53;20.70;50.70
67820;DHT22;54618;52.018;5.576;2023-04-01T19:56:15;20.60;50.80
67820;DHT22;54618;52.018;5.576;2023-04-01T19:58:48;20.50;50.80
67820;DHT22;54618;52.018;5.576;2023-04-01T20:01:36;20.50;50.80
67820;DHT22;54618;52.018;5.576;2023-04-01T20:04:08;20.40;50.90
67820;DHT22;54618;52.018;5.576;2023-04-01T20:06:44;20.40;50.90
67820;DHT22;54618;52.018;5.576;2023-04-01T20:09:39;20.30;50.90
67820;DHT22;54618;52.018;5.576;2023-04-01T20:14:39;20.30;51.20
67820;DHT22;54618;52.018;5.576;2023-04-01T20:17:21;20.20;51.10
67820;DHT22;54618;52.018;5.576;2023-04-01T20:20:02;20.20;51.10
67820;DHT22;54618;52.018;5.576;2023-04-01T20:27:58;20.10;51.80
67820;DHT22;54618;52.018;5.576;2023-04-01T20:33:48;20.00;52.00
67820;DHT22;54618;52.018;5.576;2023-04-01T20:45:08;19.90;51.90
67820;DHT22;54618;52.018;5.576;2023-04-01T20:52:56;19.80;51.70
67820;DHT22;54618;52.018;5.576;2023-04-01T20:55:47;19.80;51.50
67820;DHT22;54618;52.018;5.576;2023-04-01T20:58:24;19.80;51.70
67820;DHT22;54618;52.018;5.576;2023-04-01T21:06:39;19.70;52.60
67820;DHT22;54618;52.018;5.576;2023-04-01T21:09:28;19.70;52.40
67820;DHT22;54618;52.018;5.576;2023-04-01T21:12:22;19.70;52.20
67820;DHT22;54618;52.018;5.576;2023-04-01T21:15:26;19.60;51.80
67820;DHT22;54618;52.018;5.576;2023-04-01T21:28:41;19.60;52.20
67820;DHT22;54618;52.018;5.576;2023-04-01T21:33:45;19.60;52.00
67820;DHT22;54618;52.018;5.576;2023-04-01T21:36:43;19.60;52.00
67820;DHT22;54618;52.018;5.576;2023-04-01T21:50:15;19.50;52.10
67820;DHT22;54618;52.018;5.576;2023-04-01T22:07:25;19.40;53.40
67820;DHT22;54618;52.018;5.576;2023-04-01T22:14:57;19.40;52.40
67820;DHT22;54618;52.018;5.576;2023-04-01T22:17:35;19.40;52.50
67820;DHT22;54618;52.018;5.576;2023-04-01T22:26:21;19.30;53.00
67820;DHT22;54618;52.018;5.576;2023-04-01T22:28:51;19.30;52.50
67820;DHT22;54618;52.018;5.576;2023-04-01T22:31:24;19.20;53.20
67820;DHT22;54618;52.018;5.576;2023-04-01T22:42:44;19.20;53.00
67820;DHT22;54618;52.018;5.576;2023-04-01T22:47:54;19.10;52.60
67820;DHT22;54618;52.018;5.576;2023-04-01T22:53:20;19.10;52.70
67820;DHT22;54618;52.018;5.576;2023-04-01T22:55:51;19.10;53.10
67820;DHT22;54618;52.018;5.576;2023-04-01T22:58:38;19.10;52.80
67820;DHT22;54618;52.018;5.576;2023-04-01T23:01:13;19.10;53.20
67820;DHT22;54618;52.018;5.576;2023-04-01T23:03:41;19.10;52.80
67820;DHT22;54618;52.018;5.576;2023-04-01T23:06:17;19.00;52.80
67820;DHT22;54618;52.018;5.576;2023-04-01T23:09:11;19.00;52.80
67820;DHT22;54618;52.018;5.576;2023-04-01T23:11:48;19.00;53.30
67820;DHT22;54618;52.018;5.576;2023-04-01T23:17:15;19.00;53.20
67820;DHT22;54618;52.018;5.576;2023-04-01T23:20:03;19.00;52.80
67820;DHT22;54618;52.018;5.576;2023-04-01T23:27:51;18.90;52.80
67820;DHT22;54618;52.018;5.576;2023-04-01T23:35:49;18.90;53.20
67820;DHT22;54618;52.018;5.576;2023-04-01T23:38:17;18.90;53.50
67820;DHT22;54618;52.018;5.576;2023-04-01T23:40:43;18.90;52.70
67820;DHT22;54618;52.018;5.576;2023-04-01T23:43:22;18.90;52.80
67820;DHT22;54618;52.018;5.576;2023-04-01T23:45:49;18.90;53.00
67820;DHT22;54618;52.018;5.576;2023-04-01T23:48:16;18.90;53.90
67820;DHT22;54618;52.018;5.576;2023-04-01T23:50:45;18.90;52.80
67820;DHT22;54618;52.018;5.576;2023-04-01T23:53:18;18.90;52.80
67820;DHT22;54618;52.018;5.576;2023-04-01T23:55:43;18.90;53.00
67820;DHT22;54618;52.018;5.576;2023-04-01T23:58:21;18.90;53.00
